Time;durP1;ratioP1;P1;durP2;ratioP2;P2;SDS_P1;SDS_P2;PMS_P1;PMS_P2;Temp;Humidity;BMP_temperature;BMP_pressure;BME280_temperature;BME280_humidity;BME280_pressure;Samples;Min_cycle;Max_cycle;Signal;HPM_P1;HPM_P2
2021/07/25 00:00:33;;;;;;;;;22.75;22.00;;;;;25.09;52.37;98511.63;6138168;28;97532;-62
2021/07/25 00:03:37;;;;;;;;;23.20;22.80;;;;;25.07;52.46;98516.69;6131593;28;97579;-62
2021/07/25 00:06:40;;;;;;;;;25.20;23.20;;;;;25.09;52.18;98517.16;6114670;28;97664;-62
2021/07/25 00:09:49;;;;;;;;;25.00;23.00;;;;;25.05;52.10;98514.22;6115594;28;99517;-62
2021/07/25 00:13:00;;;;;;;;;30.40;28.00;;;;;25.01;52.21;98514.09;6141622;28;96537;-61
2021/07/25 00:16:03;;;;;;;;;27.00;26.00;;;;;24.97;52.48;98520.56;6137382;28;97411;-61
2021/07/25 00:19:13;;;;;;;;;28.50;26.00;;;;;24.95;52.36;98522.84;6130106;28;97375;-62
2021/07/25 00:22:16;;;;;;;;;29.00;25.00;;;;;24.91;52.25;98530.13;6120882;28;97123;-61
2021/07/25 00:25:20;;;;;;;;;26.00;24.00;;;;;24.93;52.36;98533.38;6118666;28;97157;-62
2021/07/25 00:28:32;;;;;;;;;26.00;25.40;;;;;24.91;52.24;98524.63;6114692;28;98550;-61
2021/07/25 00:31:36;;;;;;;;;26.00;23.20;;;;;24.88;52.21;98525.25;6134234;28;97284;-61
2021/07/25 00:34:39;;;;;;;;;26.50;24.50;;;;;24.78;52.40;98511.75;6116805;28;97040;-61
2021/07/25 00:37:44;;;;;;;;;25.00;22.50;;;;;24.73;52.35;98515.47;6138979;28;97557;-61
2021/07/25 00:40:52;;;;;;;;;24.60;23.00;;;;;24.72;52.76;98519.41;6122070;28;97807;-61
2021/07/25 00:43:57;;;;;;;;;26.33;24.33;;;;;24.59;53.37;98510.13;6140994;28;97475;-63
2021/07/25 00:47:02;;;;;;;;;27.00;24.00;;;;;24.55;53.28;98509.16;6137040;28;96719;-62
2021/07/25 00:50:09;;;;;;;;;28.40;25.20;;;;;24.50;53.03;98508.50;6139931;28;97165;-62
2021/07/25 00:53:13;;;;;;;;;28.80;25.00;;;;;24.46;53.24;98504.75;6118312;28;97706;-62
2021/07/25 00:56:16;;;;;;;;;25.40;23.40;;;;;24.40;53.59;98495.84;6131695;28;97465;-61
2021/07/25 00:59:21;;;;;;;;;26.00;25.00;;;;;24.32;53.98;98502.16;6127904;28;97016;-62
2021/07/25 01:02:26;;;;;;;;;22.00;21.00;;;;;24.30;53.62;98485.13;6131261;28;97205;-62
2021/07/25 01:05:42;;;;;;;;;25.40;23.40;;;;;24.32;53.36;98490.31;6136036;28;97025;-62
2021/07/25 01:08:51;;;;;;;;;28.00;26.67;;;;;24.29;53.58;98494.50;6135326;28;97125;-62
2021/07/25 01:11:57;;;;;;;;;27.00;25.50;;;;;24.24;54.16;98483.63;6134721;28;97595;-64
2021/07/25 01:15:03;;;;;;;;;28.40;27.60;;;;;24.25;53.92;98487.19;6139986;28;96679;-61
2021/07/25 01:18:06;;;;;;;;;28.00;26.00;;;;;24.24;53.72;98491.13;6121317;28;97410;-64
2021/07/25 01:21:11;;;;;;;;;27.40;25.60;;;;;24.25;53.72;98484.44;6109082;28;97299;-64
2021/07/25 01:24:14;;;;;;;;;27.80;25.00;;;;;24.23;53.79;98483.97;6131994;28;97143;-64
2021/07/25 01:27:29;;;;;;;;;24.00;23.00;;;;;24.17;53.64;98484.13;6131111;28;96763;-63
2021/07/25 01:30:34;;;;;;;;;28.20;25.20;;;;;24.19;54.09;98488.50;6134374;28;97281;-63
2021/07/25 01:33:42;;;;;;;;;27.00;24.80;;;;;24.15;53.54;98491.84;6132144;28;98200;-63
2021/07/25 01:36:47;;;;;;;;;26.00;23.60;;;;;24.19;53.62;98485.75;6109927;28;97175;-62
2021/07/25 01:39:51;;;;;;;;;27.00;26.60;;;;;24.16;53.60;98485.25;6139063;28;97503;-63
2021/07/25 01:42:55;;;;;;;;;27.25;25.25;;;;;24.17;53.69;98486.06;6136662;28;98101;-63
2021/07/25 01:45:59;;;;;;;;;28.00;26.00;;;;;24.13;54.16;98488.63;6122647;28;96953;-64
2021/07/25 01:49:03;;;;;;;;;30.00;28.00;;;;;24.14;54.26;98484.72;6139106;28;97541;-62
2021/07/25 01:52:08;;;;;;;;;29.00;27.50;;;;;24.14;54.22;98473.69;6128033;28;96963;-61
2021/07/25 01:55:12;;;;;;;;;30.80;28.80;;;;;24.19;54.22;98480.25;6139043;28;97537;-61
2021/07/25 01:58:15;;;;;;;;;32.00;30.00;;;;;24.19;54.24;98486.53;6135082;28;97075;-61
2021/07/25 02:01:18;;;;;;;;;30.67;28.00;;;;;24.24;53.92;98491.91;6126691;28;96873;-61
2021/07/25 02:04:23;;;;;;;;;29.00;28.00;;;;;24.21;53.83;98498.06;6117867;28;97477;-62
2021/07/25 02:07:28;;;;;;;;;30.25;26.00;;;;;24.23;54.02;98495.81;6127011;28;98057;-61
2021/07/25 02:10:31;;;;;;;;;29.00;26.60;;;;;24.25;54.04;98495.47;6136778;28;96921;-61
2021/07/25 02:13:34;;;;;;;;;28.50;26.00;;;;;24.25;53.90;98495.47;6119509;28;98515;-61
2021/07/25 02:16:38;;;;;;;;;30.00;27.60;;;;;24.24;53.98;98500.16;6110157;28;97423;-61
2021/07/25 02:19:42;;;;;;;;;23.80;23.80;;;;;24.22;53.99;98494.19;6099597;28;98468;-62
2021/07/25 02:22:46;;;;;;;;;30.00;26.40;;;;;24.21;54.38;98489.78;6125811;28;97458;-62
2021/07/25 02:25:52;;;;;;;;;23.40;22.40;;;;;24.22;54.25;98496.13;6128608;28;96726;-61
2021/07/25 02:28:56;;;;;;;;;23.80;21.00;;;;;24.17;53.99;98495.16;6133599;28;97221;-62
2021/07/25 02:31:59;;;;;;;;;22.50;21.50;;;;;24.16;53.63;98485.25;6113947;28;96645;-61
2021/07/25 02:35:03;;;;;;;;;22.40;21.40;;;;;24.15;53.33;98491.03;6123945;28;97141;-61
2021/07/25 02:38:08;;;;;;;;;25.75;22.75;;;;;24.10;53.44;98489.25;6135457;28;97211;-62
2021/07/25 02:41:11;;;;;;;;;23.00;21.80;;;;;24.09;53.52;98484.84;6136070;28;96789;-63
2021/07/25 02:44:15;;;;;;;;;24.00;23.00;;;;;24.10;53.67;98491.19;6134019;28;96946;-63
2021/07/25 02:47:28;;;;;;;;;27.00;23.40;;;;;24.08;53.55;98490.72;6130662;28;96688;-62
2021/07/25 02:50:32;;;;;;;;;22.00;21.00;;;;;24.10;53.61;98491.19;6135163;28;97120;-62
2021/07/25 02:53:36;;;;;;;;;24.25;21.50;;;;;24.11;53.63;98484.53;6101894;28;99652;-62
2021/07/25 02:56:40;;;;;;;;;24.00;21.00;;;;;24.15;53.68;98491.03;6136675;28;97231;-61
2021/07/25 02:59:43;;;;;;;;;25.20;23.20;;;;;24.14;53.55;98484.72;6121290;28;97948;-63
2021/07/25 03:02:47;;;;;;;;;25.00;22.80;;;;;24.16;53.92;98471.47;6137713;28;96979;-62
2021/07/25 03:05:50;;;;;;;;;22.00;22.00;;;;;24.20;53.52;98481.84;6130663;28;97598;-61
2021/07/25 03:08:56;;;;;;;;;23.50;21.25;;;;;24.21;52.85;98477.97;6127208;28;97165;-63
2021/07/25 03:11:59;;;;;;;;;23.00;22.00;;;;;24.25;52.69;98482.50;6138205;28;97293;-62
2021/07/25 03:15:03;;;;;;;;;24.20;22.00;;;;;24.27;52.86;98473.94;6124762;28;96705;-62
2021/07/25 03:18:06;;;;;;;;;25.20;23.60;;;;;24.31;52.35;98475.72;6126113;28;97191;-62
2021/07/25 03:21:10;;;;;;;;;24.40;23.00;;;;;24.34;52.28;98482.50;6131874;28;96588;-62
2021/07/25 03:24:14;;;;;;;;;25.00;22.00;;;;;24.39;52.33;98487.88;6128331;28;96649;-62
2021/07/25 03:27:18;;;;;;;;;26.25;23.00;;;;;24.41;52.71;98478.16;6132773;28;97442;-62
2021/07/25 03:30:21;;;;;;;;;25.00;23.00;;;;;24.44;52.75;98482.22;6132909;28;97489;-62
2021/07/25 03:33:24;;;;;;;;;26.50;24.00;;;;;24.43;52.82;98483.38;6137698;28;96547;-62
2021/07/25 03:36:28;;;;;;;;;29.00;26.00;;;;;24.41;53.03;98483.69;6126509;28;98079;-62
2021/07/25 03:39:33;;;;;;;;;26.40;26.00;;;;;24.44;53.36;98485.78;6126854;28;97734;-61
2021/07/25 03:42:37;;;;;;;;;29.60;27.00;;;;;24.47;53.45;98487.91;6129659;28;97673;-63
2021/07/25 03:45:43;;;;;;;;;31.50;27.75;;;;;24.45;53.35;98492.91;6127802;28;96547;-62
2021/07/25 03:48:46;;;;;;;;;28.50;25.50;;;;;24.51;53.80;98501.84;6129083;28;97007;-62
2021/07/25 03:51:49;;;;;;;;;28.50;28.00;;;;;24.51;53.63;98499.91;6138097;28;96817;-62
2021/07/25 03:54:54;;;;;;;;;27.00;25.60;;;;;24.49;53.78;98506.84;6118935;28;99861;-62
2021/07/25 03:57:57;;;;;;;;;31.00;28.40;;;;;24.50;53.76;98502.97;6136971;28;97072;-63
2021/07/25 04:01:01;;;;;;;;;30.00;27.00;;;;;24.51;53.91;98502.66;6133457;28;96733;-61
2021/07/25 04:04:04;;;;;;;;;28.75;26.00;;;;;24.56;53.73;98507.22;6129237;28;97189;-63
2021/07/25 04:07:08;;;;;;;;;24.00;22.20;;;;;24.46;52.72;98510.28;6137074;28;97467;-62
2021/07/25 04:10:13;;;;;;;;;26.60;25.20;;;;;24.44;52.61;98520.78;6138077;28;96651;-62
2021/07/25 04:13:16;;;;;;;;;24.60;22.60;;;;;24.39;52.86;98515.44;6135399;28;96515;-63
2021/07/25 04:16:20;;;;;;;;;23.40;22.60;;;;;24.42;52.79;98523.88;6105801;28;98528;-62
2021/07/25 04:19:23;;;;;;;;;23.00;22.00;;;;;24.44;52.85;98518.84;6137452;28;97449;-62
2021/07/25 04:22:27;;;;;;;;;23.50;23.50;;;;;24.46;52.83;98518.53;6123461;28;97527;-62
2021/07/25 04:25:33;;;;;;;;;25.00;22.00;;;;;24.51;52.89;98526.66;6128832;28;96732;-62
2021/07/25 04:28:36;;;;;;;;;25.60;23.60;;;;;24.56;52.92;98518.22;6118374;28;97716;-62
2021/07/25 04:31:40;;;;;;;;;28.50;25.00;;;;;24.64;52.97;98531.19;6134022;28;96857;-63
2021/07/25 04:34:45;;;;;;;;;27.00;24.00;;;;;24.72;52.74;98533.19;6108967;28;96575;-62
2021/07/25 04:37:51;;;;;;;;;28.60;23.00;;;;;24.71;52.78;98519.72;6120226;28;97144;-62
2021/07/25 04:41:01;;;;;;;;;26.75;24.75;;;;;24.77;52.93;98526.69;6140163;28;97448;-62
2021/07/25 04:44:12;;;;;;;;;27.00;24.80;;;;;24.83;53.22;98515.16;6136371;28;96729;-62
2021/07/25 04:47:21;;;;;;;;;29.20;26.20;;;;;24.91;53.57;98517.16;6137003;28;97287;-61
2021/07/25 04:50:29;;;;;;;;;28.00;26.00;;;;;25.02;53.72;98515.69;6129502;28;97619;-64
2021/07/25 04:53:37;;;;;;;;;31.00;28.00;;;;;25.13;53.85;98521.69;6139301;28;96863;-61
2021/07/25 04:56:58;;;;;;;;;28.60;27.00;;;;;25.25;53.59;98521.84;6139440;28;96745;-64
2021/07/25 05:00:02;;;;;;;;;31.00;27.75;;;;;25.30;53.35;98518.09;6136267;28;97305;-61
2021/07/25 05:03:06;;;;;;;;;31.00;30.00;;;;;25.44;52.80;98505.75;6133701;28;97302;-64
2021/07/25 05:06:13;;;;;;;;;29.50;28.00;;;;;25.54;52.85;98512.06;6140895;28;97421;-60
2021/07/25 05:09:18;;;;;;;;;32.00;29.00;;;;;25.65;52.29;98511.41;6141323;28;97446;-63
2021/07/25 05:12:30;;;;;;;;;27.00;25.00;;;;;25.77;52.46;98508.75;6128126;28;97479;-61
2021/07/25 05:15:36;;;;;;;;;25.80;25.20;;;;;25.91;52.50;98507.72;6134270;28;97494;-62
2021/07/25 05:18:48;;;;;;;;;29.00;27.50;;;;;25.98;52.19;98502.50;6125705;28;97094;-61
2021/07/25 05:22:01;;;;;;;;;31.00;28.00;;;;;26.18;51.77;98507.28;6115402;28;97502;-61
2021/07/25 05:25:06;;;;;;;;;31.00;28.00;;;;;26.28;51.00;98509.69;6134513;28;97462;-63
2021/07/25 05:28:11;;;;;;;;;27.00;26.25;;;;;26.44;50.80;98507.19;6141067;28;97371;-62
2021/07/25 05:31:15;;;;;;;;;28.00;25.25;;;;;26.61;49.94;98501.53;6130156;28;97004;-61
2021/07/25 05:34:18;;;;;;;;;25.60;24.00;;;;;26.86;49.74;98499.72;6135311;28;97008;-62
2021/07/25 05:37:22;;;;;;;;;26.00;24.00;;;;;27.01;48.49;98494.41;6139177;28;97269;-62
2021/07/25 05:40:25;;;;;;;;;26.00;24.00;;;;;27.19;48.32;98497.00;6140195;28;97522;-62
2021/07/25 05:43:30;;;;;;;;;26.20;24.20;;;;;27.39;48.33;98498.91;6139421;28;97500;-62
2021/07/25 05:46:33;;;;;;;;;23.00;21.50;;;;;27.56;46.26;98490.47;6134528;28;97232;-62
2021/07/25 05:49:37;;;;;;;;;23.00;22.00;;;;;27.67;44.79;98499.13;6104465;28;100458;-62
2021/07/25 05:52:45;;;;;;;;;24.00;22.80;;;;;27.80;46.10;98500.78;6120257;28;96716;-62
2021/07/25 05:55:49;;;;;;;;;26.40;23.40;;;;;27.92;46.24;98509.09;6139756;28;97360;-62
2021/07/25 05:58:53;;;;;;;;;24.40;23.00;;;;;28.10;46.85;98502.16;6121646;28;97265;-62
2021/07/25 06:01:56;;;;;;;;;24.00;22.00;;;;;28.36;46.06;98508.22;6134394;28;96692;-61
2021/07/25 06:05:00;;;;;;;;;21.00;19.75;;;;;28.63;44.93;98509.47;6126226;28;97745;-62
2021/07/25 06:08:07;;;;;;;;;22.80;22.00;;;;;28.85;44.46;98505.38;6120470;28;96842;-61
2021/07/25 06:11:10;;;;;;;;;25.00;24.75;;;;;29.07;44.92;98495.72;6099431;28;96878;-62
2021/07/25 06:14:15;;;;;;;;;23.00;23.00;;;;;29.29;44.27;98493.19;6121769;28;96621;-61
2021/07/25 06:17:18;;;;;;;;;24.00;23.60;;;;;29.54;43.81;98496.69;6127268;28;97533;-61
2021/07/25 06:20:22;;;;;;;;;28.00;26.25;;;;;29.72;43.72;98491.59;6131973;28;97250;-61
2021/07/25 06:23:25;;;;;;;;;26.20;23.60;;;;;29.94;42.70;98501.31;6133351;28;97488;-61
2021/07/25 06:26:28;;;;;;;;;28.00;26.40;;;;;30.06;41.86;98502.03;6135170;28;97732;-61
2021/07/25 06:29:33;;;;;;;;;26.50;23.50;;;;;30.22;41.86;98506.78;6117166;28;96810;-61
2021/07/25 06:33:01;;;;;;;;;22.50;20.50;;;;;30.28;40.87;98508.13;6138714;28;96555;-61
2021/07/25 06:36:09;;;;;;;;;23.50;23.00;;;;;30.31;40.08;98519.31;6103253;28;97979;-63
2021/07/25 06:39:12;;;;;;;;;25.00;21.50;;;;;30.23;40.24;98525.88;6114427;28;97538;-63
2021/07/25 06:42:16;;;;;;;;;23.00;20.40;;;;;30.31;41.02;98518.50;6127145;28;96692;-63
2021/07/25 06:45:20;;;;;;;;;25.00;22.80;;;;;30.48;42.17;98509.81;6116949;28;97253;-62
2021/07/25 06:48:26;;;;;;;;;23.00;22.00;;;;;30.70;41.19;98505.53;6135400;28;98122;-62
2021/07/25 06:51:29;;;;;;;;;20.40;19.40;;;;;30.97;39.73;98502.59;6132141;28;97556;-62
2021/07/25 06:54:35;;;;;;;;;21.60;20.00;;;;;31.21;40.31;98511.84;6128251;28;97572;-62
2021/07/25 06:57:39;;;;;;;;;18.00;18.00;;;;;31.21;38.81;98495.94;6105075;28;96953;-63
2021/07/25 07:00:44;;;;;;;;;21.00;20.00;;;;;31.47;39.55;98502.81;6126854;28;96764;-62
2021/07/25 07:03:47;;;;;;;;;18.80;17.60;;;;;31.62;38.85;98499.16;6088564;28;97477;-61
2021/07/25 07:06:50;;;;;;;;;20.00;19.00;;;;;31.87;39.05;98505.16;6135354;28;97391;-63
2021/07/25 07:09:54;;;;;;;;;21.00;20.00;;;;;32.09;38.51;98505.16;6116933;28;97183;-62
2021/07/25 07:12:59;;;;;;;;;19.00;18.00;;;;;32.22;38.46;98506.59;6134676;28;97417;-62
2021/07/25 07:16:04;;;;;;;;;22.25;21.00;;;;;32.38;38.14;98509.25;6121492;28;97465;-62
2021/07/25 07:19:08;;;;;;;;;22.60;20.60;;;;;32.54;38.36;98507.09;6123486;28;97437;-61
2021/07/25 07:22:13;;;;;;;;;20.80;18.00;;;;;32.58;37.78;98504.34;6131451;28;97498;-62
2021/07/25 07:25:16;;;;;;;;;21.40;20.00;;;;;32.76;38.84;98507.41;6122553;28;96658;-62
2021/07/25 07:28:21;;;;;;;;;20.00;19.20;;;;;32.99;38.26;98505.34;6137435;28;97637;-61
2021/07/25 07:31:25;;;;;;;;;20.00;19.00;;;;;33.22;37.57;98497.69;6136367;28;97164;-62
2021/07/25 07:34:29;;;;;;;;;20.40;19.00;;;;;33.50;37.74;98497.22;6136716;28;97437;-62
2021/07/25 07:37:32;;;;;;;;;21.40;20.00;;;;;33.78;37.08;98500.31;6124860;28;98029;-61
2021/07/25 07:40:36;;;;;;;;;20.80;19.00;;;;;34.01;36.40;98491.75;6138610;28;96492;-62
2021/07/25 07:43:42;;;;;;;;;20.00;18.00;;;;;34.26;35.61;98498.38;6136371;28;97503;-62
2021/07/25 07:46:47;;;;;;;;;21.00;20.00;;;;;34.48;36.26;98496.53;6138013;28;97764;-62
2021/07/25 07:49:50;;;;;;;;;18.50;17.50;;;;;34.62;34.22;98501.41;6137205;28;97537;-62
2021/07/25 07:52:54;;;;;;;;;20.00;19.00;;;;;34.59;35.60;98499.41;6137771;28;97116;-62
2021/07/25 07:55:57;;;;;;;;;21.50;18.00;;;;;34.62;35.18;98504.22;6119090;28;99611;-61
2021/07/25 07:59:00;;;;;;;;;16.40;15.00;;;;;34.62;34.59;98499.44;6137685;28;96551;-63
2021/07/25 08:02:05;;;;;;;;;18.00;17.00;;;;;34.41;33.20;98495.66;6115493;28;97270;-62
2021/07/25 08:05:10;;;;;;;;;17.40;16.00;;;;;34.67;33.68;98501.06;6134456;28;97123;-62
2021/07/25 08:08:13;;;;;;;;;16.20;15.80;;;;;34.91;34.17;98500.41;6134516;28;98525;-63
2021/07/25 08:11:17;;;;;;;;;16.40;16.40;;;;;35.21;33.25;98505.78;6129777;28;96653;-61
2021/07/25 08:14:21;;;;;;;;;17.00;15.00;;;;;35.51;33.55;98497.88;6108354;28;99528;-62
2021/07/25 08:17:26;;;;;;;;;15.80;15.00;;;;;35.80;32.90;98503.56;6141685;28;96559;-62
2021/07/25 08:20:29;;;;;;;;;15.25;13.75;;;;;35.99;31.29;98491.97;6131434;28;97400;-62
2021/07/25 08:23:34;;;;;;;;;13.00;13.00;;;;;35.79;30.88;98494.34;6118390;28;97244;-63
2021/07/25 08:26:38;;;;;;;;;16.00;15.00;;;;;35.65;30.88;98494.31;6142332;28;97022;-63
2021/07/25 08:29:42;;;;;;;;;17.00;15.00;;;;;35.68;30.65;98492.75;6141830;28;97563;-62
2021/07/25 08:32:46;;;;;;;;;18.00;15.00;;;;;35.86;31.50;98490.75;6106521;28;97310;-63
2021/07/25 08:35:52;;;;;;;;;14.00;13.40;;;;;36.10;32.61;98495.59;6131646;28;97211;-62
2021/07/25 08:38:56;;;;;;;;;15.00;14.00;;;;;36.39;30.71;98490.78;6137771;28;97409;-61
2021/07/25 08:42:05;;;;;;;;;13.80;13.00;;;;;36.40;29.43;98493.19;6124918;28;96681;-63
2021/07/25 08:45:10;;;;;;;;;14.40;14.00;;;;;36.21;29.41;98502.03;6139245;28;97673;-62
2021/07/25 08:48:16;;;;;;;;;14.25;12.00;;;;;35.87;29.26;98504.38;6141695;28;96938;-61
2021/07/25 08:51:21;;;;;;;;;14.00;12.00;;;;;35.30;28.70;98499.81;6143202;28;97026;-63
2021/07/25 08:54:29;;;;;;;;;12.00;12.00;;;;;35.61;28.93;98501.91;6124607;28;98687;-63
2021/07/25 08:57:34;;;;;;;;;12.00;11.00;;;;;35.81;28.08;98508.78;6133054;28;96696;-62
2021/07/25 09:00:38;;;;;;;;;12.50;12.25;;;;;36.04;27.34;98503.59;6152400;28;97449;-62
2021/07/25 09:03:44;;;;;;;;;13.00;11.00;;;;;36.17;27.49;98503.22;6141430;28;97057;-62
2021/07/25 09:06:49;;;;;;;;;12.00;11.00;;;;;36.29;27.03;98500.00;6141273;28;97481;-62
2021/07/25 09:09:56;;;;;;;;;14.00;13.00;;;;;36.05;27.83;98504.41;6138820;28;97533;-62
2021/07/25 09:12:59;;;;;;;;;11.60;11.00;;;;;36.09;28.94;98501.59;6119485;28;96790;-62
2021/07/25 09:16:02;;;;;;;;;11.25;10.25;;;;;35.85;28.28;98515.19;6138679;28;96786;-62
2021/07/25 09:19:08;;;;;;;;;13.00;12.00;;;;;35.67;28.16;98520.00;6139200;28;97641;-61
2021/07/25 09:22:15;;;;;;;;;12.00;12.00;;;;;35.47;27.55;98518.69;6127555;28;96671;-61
2021/07/25 09:25:28;;;;;;;;;14.00;12.20;;;;;35.45;28.91;98521.88;6116489;28;100106;-62
2021/07/25 09:28:32;;;;;;;;;12.00;11.00;;;;;35.25;29.39;98517.00;6129438;28;97462;-62
2021/07/25 09:31:36;;;;;;;;;14.60;13.00;;;;;35.13;28.97;98523.75;6128153;28;97023;-62
2021/07/25 09:34:42;;;;;;;;;14.00;13.00;;;;;34.94;29.81;98518.44;6133255;28;97591;-62
2021/07/25 09:37:48;;;;;;;;;14.00;12.00;;;;;34.67;28.30;98517.84;6135233;28;97172;-62
2021/07/25 09:40:52;;;;;;;;;12.00;12.00;;;;;34.41;29.42;98518.88;6132319;28;97555;-62
2021/07/25 09:44:01;;;;;;;;;11.75;10.75;;;;;34.44;29.97;98515.31;6139943;28;96576;-61
2021/07/25 09:47:06;;;;;;;;;12.00;11.00;;;;;34.43;29.60;98510.91;6136111;28;97421;-61
2021/07/25 09:50:11;;;;;;;;;13.00;12.40;;;;;34.34;29.99;98514.03;6099768;28;97179;-61
2021/07/25 09:53:14;;;;;;;;;14.00;13.00;;;;;34.33;31.04;98514.41;6140092;28;97396;-62
2021/07/25 09:56:19;;;;;;;;;13.00;13.00;;;;;34.25;30.37;98519.16;6138491;28;97789;-62
2021/07/25 09:59:26;;;;;;;;;12.00;12.00;;;;;34.21;29.79;98514.72;6139560;28;96940;-61
2021/07/25 10:02:38;;;;;;;;;14.00;13.80;;;;;34.10;30.03;98506.22;6136968;28;97499;-62
2021/07/25 10:05:43;;;;;;;;;12.00;12.00;;;;;34.00;30.67;98509.72;6139608;28;97461;-62
2021/07/25 10:08:47;;;;;;;;;12.60;11.60;;;;;33.99;29.20;98515.69;6134597;28;96877;-62
2021/07/25 10:11:55;;;;;;;;;13.00;12.20;;;;;34.00;30.25;98508.91;6133302;28;97595;-63
2021/07/25 10:15:00;;;;;;;;;11.00;11.00;;;;;33.84;29.34;98506.38;6131993;28;97561;-62
2021/07/25 10:18:07;;;;;;;;;13.80;12.80;;;;;33.90;30.47;98516.81;6138693;28;97569;-61
2021/07/25 10:21:12;;;;;;;;;12.00;11.40;;;;;33.87;30.71;98513.97;6127260;28;96855;-61
2021/07/25 10:24:18;;;;;;;;;14.00;13.00;;;;;33.97;30.91;98520.84;6135008;28;97154;-62
2021/07/25 10:27:22;;;;;;;;;14.40;14.00;;;;;33.97;31.37;98516.06;6122077;28;97867;-62
2021/07/25 10:30:27;;;;;;;;;15.00;13.00;;;;;34.00;32.01;98509.72;6136962;28;97453;-62
2021/07/25 10:33:31;;;;;;;;;16.40;15.60;;;;;33.89;31.16;98523.59;6125905;28;97873;-62
2021/07/25 10:36:39;;;;;;;;;17.00;14.00;;;;;33.62;30.00;98538.88;6119497;28;99607;-61
2021/07/25 10:39:45;;;;;;;;;16.00;15.00;;;;;33.35;30.87;98515.81;6136531;28;97382;-62
2021/07/25 10:42:50;;;;;;;;;14.20;13.20;;;;;33.45;30.44;98533.88;6119629;28;98303;-62
2021/07/25 10:46:20;;;;;;;;;14.80;14.00;;;;;33.34;30.93;98528.16;6135594;28;98499;-62
2021/07/25 10:49:28;;;;;;;;;15.00;15.00;;;;;33.25;31.67;98540.81;6125306;28;96903;-62
2021/07/25 10:53:03;;;;;;;;;16.00;15.00;;;;;33.06;32.44;98536.16;6137170;28;98629;-62
2021/07/25 10:56:08;;;;;;;;;15.40;15.40;;;;;32.88;33.33;98543.50;6132389;28;96931;-62
2021/07/25 10:59:37;;;;;;;;;18.00;17.00;;;;;32.72;33.82;98540.88;6136980;28;97476;-62
2021/07/25 11:02:53;;;;;;;;;17.00;15.80;;;;;32.57;33.92;98539.03;6125178;28;97892;-62
2021/07/25 11:06:21;;;;;;;;;16.00;16.00;;;;;32.48;34.16;98538.50;6119098;28;97538;-62
2021/07/25 11:09:56;;;;;;;;;19.40;18.00;;;;;32.35;33.85;98551.03;6119845;28;97773;-62
2021/07/25 11:13:16;;;;;;;;;19.00;18.00;;;;;32.18;34.05;98555.13;6133486;28;96784;-62
2021/07/25 11:16:42;;;;;;;;;20.00;18.00;;;;;32.18;34.83;98557.91;6126944;28;96572;-61
2021/07/25 11:19:49;;;;;;;;;18.00;17.00;;;;;32.18;34.91;98557.91;6137711;28;96551;-62
2021/07/25 11:22:52;;;;;;;;;18.40;18.00;;;;;32.07;34.10;98556.91;6137133;28;96745;-62
2021/07/25 11:25:57;;;;;;;;;19.00;17.60;;;;;31.90;34.20;98555.41;6126524;28;96580;-61
2021/07/25 11:29:06;;;;;;;;;21.50;18.25;;;;;31.78;34.05;98550.00;6135569;28;97464;-61
2021/07/25 11:32:34;;;;;;;;;18.00;17.00;;;;;31.74;34.28;98547.16;6137385;28;96914;-63
2021/07/25 11:35:46;;;;;;;;;18.40;17.40;;;;;31.52;34.12;98545.09;6135596;28;97109;-62
2021/07/25 11:38:55;;;;;;;;;21.80;20.00;;;;;31.44;34.56;98537.78;6117989;28;99115;-62
2021/07/25 11:42:05;;;;;;;;;19.75;18.00;;;;;31.56;34.86;98568.31;6134406;28;97804;-62
2021/07/25 11:45:09;;;;;;;;;18.00;17.00;;;;;31.55;34.69;98568.63;6124565;28;97430;-62
2021/07/25 11:48:20;;;;;;;;;20.00;18.00;;;;;31.48;35.39;98577.66;6130166;28;96867;-62
2021/07/25 11:51:23;;;;;;;;;18.80;17.80;;;;;31.40;35.94;98578.69;6117409;28;97069;-62
2021/07/25 11:54:29;;;;;;;;;19.00;18.00;;;;;31.35;35.99;98570.63;6130348;28;97420;-61
2021/07/25 11:57:33;;;;;;;;;19.00;18.00;;;;;31.45;36.03;98575.63;6114161;28;97710;-63
2021/07/25 12:00:37;;;;;;;;;19.00;17.00;;;;;31.32;36.22;98585.28;6124574;28;97215;-62
2021/07/25 12:03:40;;;;;;;;;20.50;19.00;;;;;31.40;36.49;98595.41;6137357;28;97036;-63
2021/07/25 12:06:44;;;;;;;;;19.75;18.00;;;;;31.32;36.18;98596.44;6117394;28;97667;-61
2021/07/25 12:09:49;;;;;;;;;16.00;16.00;;;;;31.21;34.50;98599.00;6095259;28;99576;-60
2021/07/25 12:13:03;;;;;;;;;15.00;15.00;;;;;31.16;34.69;98595.69;6116194;28;96648;-61
2021/07/25 12:16:07;;;;;;;;;16.00;15.40;;;;;31.09;34.33;98595.50;6124081;28;97609;-61
2021/07/25 12:19:13;;;;;;;;;15.00;14.60;;;;;31.03;34.57;98597.81;6135764;28;98040;-62
2021/07/25 12:22:19;;;;;;;;;15.00;15.00;;;;;30.84;34.04;98578.22;6132313;28;97651;-61
2021/07/25 12:25:24;;;;;;;;;17.00;16.40;;;;;30.88;34.07;98595.81;6124790;28;98655;-61
2021/07/25 12:28:29;;;;;;;;;16.20;14.00;;;;;30.71;33.14;98591.44;6135007;28;97297;-62
2021/07/25 12:31:32;;;;;;;;;15.60;13.00;;;;;30.73;33.42;98589.13;6137167;28;97047;-60
2021/07/25 12:34:36;;;;;;;;;15.00;14.00;;;;;30.65;33.90;98583.72;6125007;28;97533;-61
2021/07/25 12:37:44;;;;;;;;;14.60;14.00;;;;;30.63;34.12;98589.69;6135363;28;98843;-62
2021/07/25 12:40:49;;;;;;;;;15.00;13.00;;;;;30.68;34.44;98589.41;6129521;28;96874;-62
2021/07/25 12:44:01;;;;;;;;;16.00;15.00;;;;;30.68;34.44;98594.16;6138780;28;97568;-62
2021/07/25 12:47:29;;;;;;;;;14.00;14.00;;;;;30.78;34.24;98591.63;6121488;28;97183;-62
2021/07/25 12:50:44;;;;;;;;;15.60;13.80;;;;;30.94;33.87;98591.56;6124785;28;97814;-62
2021/07/25 12:53:56;;;;;;;;;13.00;13.00;;;;;30.92;34.26;98589.16;6126559;28;97434;-61
2021/07/25 12:56:59;;;;;;;;;14.00;13.25;;;;;31.10;34.77;98586.00;6132634;28;96886;-62
2021/07/25 13:00:05;;;;;;;;;13.00;12.00;;;;;31.08;33.96;98555.75;6137376;28;96615;-62
2021/07/25 13:06:31;;;;;;;;;14.00;13.00;;;;;31.38;33.92;98583.81;6119584;28;97248;-62
2021/07/25 13:09:35;;;;;;;;;15.00;14.00;;;;;31.31;33.27;98581.69;6129569;28;96826;-61
2021/07/25 13:12:38;;;;;;;;;13.00;12.00;;;;;31.29;34.14;98574.88;6139565;28;97418;-60
2021/07/25 13:15:43;;;;;;;;;16.40;15.00;;;;;31.18;33.16;98576.66;6140054;28;96493;-62
2021/07/25 13:18:49;;;;;;;;;15.00;15.00;;;;;31.09;33.91;98576.81;6118927;28;97500;-62
2021/07/25 13:21:53;;;;;;;;;15.67;15.00;;;;;30.91;33.98;98575.59;6122575;28;97033;-62
2021/07/25 13:24:56;;;;;;;;;14.00;13.00;;;;;30.70;35.73;98575.09;6132463;28;97492;-62
2021/07/25 13:28:00;;;;;;;;;14.00;13.00;;;;;30.59;36.68;98579.63;6110222;28;98460;-62
2021/07/25 13:31:05;;;;;;;;;15.00;13.00;;;;;30.38;36.48;98564.00;6139180;28;96425;-61
2021/07/25 13:34:08;;;;;;;;;14.00;14.00;;;;;30.22;36.62;98567.94;6139750;28;97473;-61
2021/07/25 13:37:12;;;;;;;;;18.00;16.00;;;;;30.24;37.69;98565.63;6131699;28;97430;-61
2021/07/25 13:40:15;;;;;;;;;18.00;16.20;;;;;30.17;37.45;98568.22;6131924;28;98860;-63
2021/07/25 13:43:19;;;;;;;;;17.00;16.00;;;;;30.08;37.59;98565.63;6133040;28;97425;-62
2021/07/25 13:46:29;;;;;;;;;15.00;14.00;;;;;29.85;38.30;98526.50;6113081;28;97249;-63
2021/07/25 13:49:33;;;;;;;;;17.00;16.00;;;;;30.01;38.22;98555.13;6112578;28;97479;-62
2021/07/25 13:52:41;;;;;;;;;14.75;13.75;;;;;29.97;38.81;98558.97;6134256;28;96705;-62
2021/07/25 13:55:44;;;;;;;;;15.67;14.67;;;;;29.89;39.05;98548.84;6139878;28;97532;-61
2021/07/25 13:58:48;;;;;;;;;16.80;14.80;;;;;29.80;39.55;98526.75;6141100;28;97432;-62
2021/07/25 14:01:53;;;;;;;;;18.00;17.00;;;;;29.92;39.96;98537.00;6138702;28;97492;-62
2021/07/25 14:04:56;;;;;;;;;16.00;16.00;;;;;29.93;39.01;98536.66;6140499;28;97132;-61
2021/07/25 14:08:00;;;;;;;;;17.00;16.00;;;;;29.88;39.41;98533.28;6138977;28;97647;-61
2021/07/25 14:11:10;;;;;;;;;17.60;15.60;;;;;29.95;39.85;98534.31;6129723;28;96607;-61
2021/07/25 14:14:18;;;;;;;;;16.60;15.00;;;;;29.95;39.96;98539.06;6135097;28;97471;-61
2021/07/25 14:17:23;;;;;;;;;18.25;16.75;;;;;29.95;39.85;98537.09;6133863;28;97581;-62